sensor_id;sensor_type;location;lat;lon;timestamp;P1;durP1;ratioP1;P2;durP2;ratioP2
25780;SDS011;13626;48.128;11.628;2022-10-26T00:01:35;4.70;;;2.20;;
25780;SDS011;13626;48.128;11.628;2022-10-26T00:04:02;2.35;;;1.75;;
25780;SDS011;13626;48.128;11.628;2022-10-26T00:06:30;3.13;;;1.67;;
25780;SDS011;13626;48.128;11.628;2022-10-26T00:08:57;2.63;;;1.83;;
25780;SDS011;13626;48.128;11.628;2022-10-26T00:11:24;3.85;;;2.25;;
25780;SDS011;13626;48.128;11.628;2022-10-26T00:13:51;2.47;;;1.90;;
25780;SDS011;13626;48.128;11.628;2022-10-26T00:16:22;3.05;;;1.90;;
25780;SDS011;13626;48.128;11.628;2022-10-26T00:18:50;3.47;;;1.90;;
25780;SDS011;13626;48.128;11.628;2022-10-26T00:21:17;5.65;;;1.85;;
25780;SDS011;13626;48.128;11.628;2022-10-26T00:23:45;3.75;;;2.10;;
25780;SDS011;13626;48.128;11.628;2022-10-26T00:26:12;5.90;;;2.05;;
25780;SDS011;13626;48.128;11.628;2022-10-26T00:28:39;4.50;;;2.42;;
25780;SDS011;13626;48.128;11.628;2022-10-26T00:31:07;3.25;;;2.00;;
25780;SDS011;13626;48.128;11.628;2022-10-26T00:33:35;6.18;;;2.55;;
25780;SDS011;13626;48.128;11.628;2022-10-26T00:36:02;5.75;;;2.10;;
25780;SDS011;13626;48.128;11.628;2022-10-26T00:38:29;3.30;;;2.25;;
25780;SDS011;13626;48.128;11.628;2022-10-26T00:40:57;6.05;;;1.92;;
25780;SDS011;13626;48.128;11.628;2022-10-26T00:45:51;3.70;;;2.03;;
25780;SDS011;13626;48.128;11.628;2022-10-26T00:48:27;3.15;;;1.75;;
25780;SDS011;13626;48.128;11.628;2022-10-26T00:50:55;5.38;;;2.10;;
25780;SDS011;13626;48.128;11.628;2022-10-26T00:53:24;4.32;;;1.85;;
25780;SDS011;13626;48.128;11.628;2022-10-26T00:55:52;4.40;;;1.88;;
25780;SDS011;13626;48.128;11.628;2022-10-26T00:58:19;5.07;;;1.70;;
25780;SDS011;13626;48.128;11.628;2022-10-26T01:00:47;2.58;;;1.70;;
25780;SDS011;13626;48.128;11.628;2022-10-26T01:03:15;3.42;;;1.80;;
25780;SDS011;13626;48.128;11.628;2022-10-26T01:05:43;6.40;;;2.28;;
25780;SDS011;13626;48.128;11.628;2022-10-26T01:08:12;2.67;;;1.77;;
25780;SDS011;13626;48.128;11.628;2022-10-26T01:10:40;2.78;;;1.63;;
25780;SDS011;13626;48.128;11.628;2022-10-26T01:13:08;1.88;;;1.50;;
25780;SDS011;13626;48.128;11.628;2022-10-26T01:15:38;2.60;;;1.65;;
25780;SDS011;13626;48.128;11.628;2022-10-26T01:18:12;1.77;;;1.40;;
25780;SDS011;13626;48.128;11.628;2022-10-26T01:23:35;2.83;;;1.90;;
25780;SDS011;13626;48.128;11.628;2022-10-26T01:26:24;2.53;;;1.58;;
25780;SDS011;13626;48.128;11.628;2022-10-26T01:31:42;2.55;;;1.60;;
25780;SDS011;13626;48.128;11.628;2022-10-26T01:34:11;2.75;;;1.48;;
25780;SDS011;13626;48.128;11.628;2022-10-26T01:36:44;2.72;;;1.63;;
25780;SDS011;13626;48.128;11.628;2022-10-26T01:39:21;2.75;;;1.90;;
25780;SDS011;13626;48.128;11.628;2022-10-26T01:41:51;2.17;;;1.70;;
25780;SDS011;13626;48.128;11.628;2022-10-26T01:46:46;4.72;;;1.70;;
25780;SDS011;13626;48.128;11.628;2022-10-26T01:49:15;3.55;;;1.60;;
25780;SDS011;13626;48.128;11.628;2022-10-26T01:51:43;3.15;;;1.50;;
25780;SDS011;13626;48.128;11.628;2022-10-26T01:54:13;3.45;;;1.83;;
25780;SDS011;13626;48.128;11.628;2022-10-26T01:56:41;4.90;;;1.70;;
25780;SDS011;13626;48.128;11.628;2022-10-26T02:04:20;2.10;;;1.60;;
25780;SDS011;13626;48.128;11.628;2022-10-26T02:11:51;2.55;;;1.90;;
25780;SDS011;13626;48.128;11.628;2022-10-26T02:14:24;3.00;;;1.52;;
25780;SDS011;13626;48.128;11.628;2022-10-26T02:16:56;1.95;;;1.52;;
25780;SDS011;13626;48.128;11.628;2022-10-26T02:19:26;4.43;;;1.85;;
25780;SDS011;13626;48.128;11.628;2022-10-26T02:21:59;2.83;;;1.60;;
25780;SDS011;13626;48.128;11.628;2022-10-26T02:24:28;2.05;;;1.60;;
25780;SDS011;13626;48.128;11.628;2022-10-26T02:26:56;2.90;;;1.80;;
25780;SDS011;13626;48.128;11.628;2022-10-26T02:29:25;4.63;;;1.80;;
25780;SDS011;13626;48.128;11.628;2022-10-26T02:31:53;3.42;;;1.70;;
25780;SDS011;13626;48.128;11.628;2022-10-26T02:34:21;2.47;;;1.90;;
25780;SDS011;13626;48.128;11.628;2022-10-26T02:36:49;3.10;;;1.95;;
25780;SDS011;13626;48.128;11.628;2022-10-26T02:39:19;2.78;;;1.60;;
25780;SDS011;13626;48.128;11.628;2022-10-26T02:41:47;2.50;;;1.85;;
25780;SDS011;13626;48.128;11.628;2022-10-26T02:44:22;3.38;;;1.80;;
25780;SDS011;13626;48.128;11.628;2022-10-26T02:46:49;3.03;;;1.55;;
25780;SDS011;13626;48.128;11.628;2022-10-26T02:49:17;8.10;;;1.80;;
25780;SDS011;13626;48.128;11.628;2022-10-26T02:51:46;4.03;;;1.65;;
25780;SDS011;13626;48.128;11.628;2022-10-26T02:54:18;2.13;;;1.52;;
25780;SDS011;13626;48.128;11.628;2022-10-26T02:56:51;2.75;;;1.38;;
25780;SDS011;13626;48.128;11.628;2022-10-26T02:59:20;3.67;;;1.73;;
25780;SDS011;13626;48.128;11.628;2022-10-26T03:01:49;3.08;;;1.55;;
25780;SDS011;13626;48.128;11.628;2022-10-26T03:04:16;5.25;;;1.50;;
25780;SDS011;13626;48.128;11.628;2022-10-26T03:06:53;3.05;;;1.55;;
25780;SDS011;13626;48.128;11.628;2022-10-26T03:09:21;3.78;;;1.63;;
25780;SDS011;13626;48.128;11.628;2022-10-26T03:11:51;2.80;;;1.48;;
25780;SDS011;13626;48.128;11.628;2022-10-26T03:14:18;2.45;;;1.50;;
25780;SDS011;13626;48.128;11.628;2022-10-26T03:16:45;4.07;;;1.50;;
25780;SDS011;13626;48.128;11.628;2022-10-26T03:19:12;4.38;;;2.22;;
25780;SDS011;13626;48.128;11.628;2022-10-26T03:21:40;2.67;;;1.67;;
25780;SDS011;13626;48.128;11.628;2022-10-26T03:24:07;3.10;;;1.60;;
25780;SDS011;13626;48.128;11.628;2022-10-26T03:26:35;2.55;;;1.63;;
25780;SDS011;13626;48.128;11.628;2022-10-26T03:29:02;1.88;;;1.60;;
25780;SDS011;13626;48.128;11.628;2022-10-26T03:31:29;2.72;;;1.63;;
25780;SDS011;13626;48.128;11.628;2022-10-26T03:33:56;1.63;;;1.45;;
25780;SDS011;13626;48.128;11.628;2022-10-26T03:36:24;2.20;;;1.60;;
25780;SDS011;13626;48.128;11.628;2022-10-26T03:38:51;1.50;;;1.33;;
25780;SDS011;13626;48.128;11.628;2022-10-26T03:41:18;5.85;;;1.70;;
25780;SDS011;13626;48.128;11.628;2022-10-26T03:43:45;3.85;;;1.75;;
25780;SDS011;13626;48.128;11.628;2022-10-26T03:46:13;3.53;;;1.50;;
25780;SDS011;13626;48.128;11.628;2022-10-26T03:48:40;3.50;;;1.77;;
25780;SDS011;13626;48.128;11.628;2022-10-26T03:51:07;2.22;;;1.45;;
25780;SDS011;13626;48.128;11.628;2022-10-26T03:53:35;2.22;;;1.63;;
25780;SDS011;13626;48.128;11.628;2022-10-26T03:56:02;2.30;;;1.60;;
25780;SDS011;13626;48.128;11.628;2022-10-26T03:58:29;1.60;;;1.45;;
25780;SDS011;13626;48.128;11.628;2022-10-26T04:00:56;2.22;;;1.70;;
25780;SDS011;13626;48.128;11.628;2022-10-26T04:03:23;2.70;;;1.73;;
25780;SDS011;13626;48.128;11.628;2022-10-26T04:05:50;3.00;;;1.67;;
25780;SDS011;13626;48.128;11.628;2022-10-26T04:08:17;4.55;;;1.48;;
25780;SDS011;13626;48.128;11.628;2022-10-26T04:10:45;1.67;;;1.58;;
25780;SDS011;13626;48.128;11.628;2022-10-26T04:13:12;2.50;;;1.63;;
25780;SDS011;13626;48.128;11.628;2022-10-26T04:15:39;2.58;;;1.50;;
25780;SDS011;13626;48.128;11.628;2022-10-26T04:18:07;1.98;;;1.42;;
25780;SDS011;13626;48.128;11.628;2022-10-26T04:20:34;3.00;;;1.60;;
25780;SDS011;13626;48.128;11.628;2022-10-26T04:23:05;2.13;;;1.65;;
25780;SDS011;13626;48.128;11.628;2022-10-26T04:25:32;4.00;;;1.85;;
25780;SDS011;13626;48.128;11.628;2022-10-26T04:28:00;2.28;;;1.88;;
25780;SDS011;13626;48.128;11.628;2022-10-26T04:30:28;3.60;;;1.92;;
25780;SDS011;13626;48.128;11.628;2022-10-26T04:32:55;6.43;;;1.60;;
25780;SDS011;13626;48.128;11.628;2022-10-26T04:35:22;2.42;;;1.77;;
25780;SDS011;13626;48.128;11.628;2022-10-26T04:37:50;3.40;;;1.98;;
25780;SDS011;13626;48.128;11.628;2022-10-26T04:40:17;2.45;;;1.50;;
25780;SDS011;13626;48.128;11.628;2022-10-26T04:42:45;2.85;;;1.48;;
25780;SDS011;13626;48.128;11.628;2022-10-26T04:45:15;4.45;;;1.80;;
25780;SDS011;13626;48.128;11.628;2022-10-26T04:47:42;2.70;;;1.60;;
25780;SDS011;13626;48.128;11.628;2022-10-26T04:50:10;3.22;;;1.60;;
25780;SDS011;13626;48.128;11.628;2022-10-26T04:52:38;2.28;;;1.50;;
25780;SDS011;13626;48.128;11.628;2022-10-26T04:55:05;2.17;;;1.85;;
25780;SDS011;13626;48.128;11.628;2022-10-26T04:57:33;3.00;;;1.60;;
25780;SDS011;13626;48.128;11.628;2022-10-26T05:00:00;2.75;;;1.40;;
25780;SDS011;13626;48.128;11.628;2022-10-26T05:02:28;2.30;;;1.48;;
25780;SDS011;13626;48.128;11.628;2022-10-26T05:04:55;2.45;;;1.55;;
25780;SDS011;13626;48.128;11.628;2022-10-26T05:07:22;2.30;;;1.60;;
25780;SDS011;13626;48.128;11.628;2022-10-26T05:09:50;3.22;;;1.48;;
25780;SDS011;13626;48.128;11.628;2022-10-26T05:12:17;1.70;;;1.50;;
25780;SDS011;13626;48.128;11.628;2022-10-26T05:14:44;3.85;;;1.58;;
25780;SDS011;13626;48.128;11.628;2022-10-26T05:17:11;4.10;;;1.65;;
25780;SDS011;13626;48.128;11.628;2022-10-26T05:19:38;3.03;;;1.40;;
25780;SDS011;13626;48.128;11.628;2022-10-26T05:22:05;3.25;;;1.75;;
25780;SDS011;13626;48.128;11.628;2022-10-26T05:24:32;6.22;;;1.85;;
25780;SDS011;13626;48.128;11.628;2022-10-26T05:26:59;3.97;;;1.85;;
25780;SDS011;13626;48.128;11.628;2022-10-26T05:29:27;2.78;;;2.22;;
25780;SDS011;13626;48.128;11.628;2022-10-26T05:31:54;5.55;;;2.00;;
25780;SDS011;13626;48.128;11.628;2022-10-26T05:34:21;2.53;;;1.88;;
25780;SDS011;13626;48.128;11.628;2022-10-26T05:36:48;3.25;;;1.77;;
25780;SDS011;13626;48.128;11.628;2022-10-26T05:39:18;2.78;;;1.60;;
25780;SDS011;13626;48.128;11.628;2022-10-26T05:41:45;4.18;;;2.20;;
25780;SDS011;13626;48.128;11.628;2022-10-26T05:44:12;1.98;;;1.50;;
25780;SDS011;13626;48.128;11.628;2022-10-26T05:46:39;5.28;;;1.70;;
25780;SDS011;13626;48.128;11.628;2022-10-26T05:49:07;5.57;;;1.85;;
25780;SDS011;13626;48.128;11.628;2022-10-26T05:51:34;11.38;;;3.97;;
25780;SDS011;13626;48.128;11.628;2022-10-26T05:54:02;18.08;;;5.05;;
25780;SDS011;13626;48.128;11.628;2022-10-26T05:56:36;11.80;;;4.03;;
25780;SDS011;13626;48.128;11.628;2022-10-26T05:59:05;11.73;;;3.80;;
25780;SDS011;13626;48.128;11.628;2022-10-26T06:05:06;14.60;;;2.78;;
25780;SDS011;13626;48.128;11.628;2022-10-26T06:07:14;5.68;;;2.40;;
25780;SDS011;13626;48.128;11.628;2022-10-26T06:09:42;7.03;;;2.38;;
25780;SDS011;13626;48.128;11.628;2022-10-26T06:12:09;4.38;;;1.95;;
25780;SDS011;13626;48.128;11.628;2022-10-26T06:14:40;5.30;;;2.45;;
25780;SDS011;13626;48.128;11.628;2022-10-26T06:25:08;4.35;;;2.25;;
25780;SDS011;13626;48.128;11.628;2022-10-26T06:27:54;5.63;;;2.50;;
25780;SDS011;13626;48.128;11.628;2022-10-26T06:30:22;3.97;;;2.22;;
25780;SDS011;13626;48.128;11.628;2022-10-26T06:32:49;7.45;;;3.28;;
25780;SDS011;13626;48.128;11.628;2022-10-26T06:35:44;6.40;;;2.50;;
25780;SDS011;13626;48.128;11.628;2022-10-26T06:38:18;3.90;;;1.90;;
25780;SDS011;13626;48.128;11.628;2022-10-26T06:40:50;4.80;;;2.83;;
25780;SDS011;13626;48.128;11.628;2022-10-26T06:43:25;3.42;;;1.95;;
25780;SDS011;13626;48.128;11.628;2022-10-26T06:51:14;5.60;;;2.45;;
25780;SDS011;13626;48.128;11.628;2022-10-26T06:53:56;4.03;;;2.50;;
25780;SDS011;13626;48.128;11.628;2022-10-26T06:56:26;9.35;;;3.25;;
25780;SDS011;13626;48.128;11.628;2022-10-26T06:58:53;6.03;;;2.85;;
25780;SDS011;13626;48.128;11.628;2022-10-26T07:01:22;6.05;;;2.80;;
25780;SDS011;13626;48.128;11.628;2022-10-26T07:03:49;3.90;;;2.40;;
25780;SDS011;13626;48.128;11.628;2022-10-26T07:06:16;7.57;;;2.15;;
25780;SDS011;13626;48.128;11.628;2022-10-26T07:08:44;4.93;;;2.42;;
25780;SDS011;13626;48.128;11.628;2022-10-26T07:11:11;4.60;;;2.38;;
25780;SDS011;13626;48.128;11.628;2022-10-26T07:13:38;7.35;;;2.60;;
25780;SDS011;13626;48.128;11.628;2022-10-26T07:16:05;5.63;;;2.63;;
25780;SDS011;13626;48.128;11.628;2022-10-26T07:18:33;6.18;;;2.80;;
25780;SDS011;13626;48.128;11.628;2022-10-26T07:21:00;6.63;;;3.08;;
25780;SDS011;13626;48.128;11.628;2022-10-26T07:23:27;8.18;;;2.70;;
25780;SDS011;13626;48.128;11.628;2022-10-26T07:25:59;4.65;;;2.55;;
25780;SDS011;13626;48.128;11.628;2022-10-26T07:28:26;7.60;;;2.75;;
25780;SDS011;13626;48.128;11.628;2022-10-26T07:30:53;5.95;;;2.20;;
25780;SDS011;13626;48.128;11.628;2022-10-26T07:33:21;7.40;;;2.60;;
25780;SDS011;13626;48.128;11.628;2022-10-26T07:35:48;3.30;;;2.00;;
25780;SDS011;13626;48.128;11.628;2022-10-26T07:38:15;4.97;;;1.95;;
25780;SDS011;13626;48.128;11.628;2022-10-26T07:40:42;4.93;;;1.90;;
25780;SDS011;13626;48.128;11.628;2022-10-26T07:43:09;4.90;;;1.90;;
25780;SDS011;13626;48.128;11.628;2022-10-26T07:45:37;3.85;;;2.08;;
25780;SDS011;13626;48.128;11.628;2022-10-26T07:48:05;4.43;;;2.05;;
25780;SDS011;13626;48.128;11.628;2022-10-26T07:50:32;3.78;;;1.40;;
25780;SDS011;13626;48.128;11.628;2022-10-26T07:53:00;2.80;;;1.60;;
25780;SDS011;13626;48.128;11.628;2022-10-26T07:55:27;6.30;;;2.20;;
25780;SDS011;13626;48.128;11.628;2022-10-26T07:57:54;4.97;;;1.50;;
25780;SDS011;13626;48.128;11.628;2022-10-26T08:00:22;3.15;;;1.60;;
25780;SDS011;13626;48.128;11.628;2022-10-26T08:02:49;3.58;;;1.42;;
25780;SDS011;13626;48.128;11.628;2022-10-26T08:05:16;2.60;;;1.23;;
25780;SDS011;13626;48.128;11.628;2022-10-26T08:07:44;3.10;;;1.50;;
25780;SDS011;13626;48.128;11.628;2022-10-26T08:10:11;2.03;;;1.35;;
25780;SDS011;13626;48.128;11.628;2022-10-26T08:12:38;4.07;;;1.50;;
25780;SDS011;13626;48.128;11.628;2022-10-26T08:15:06;1.20;;;1.10;;
25780;SDS011;13626;48.128;11.628;2022-10-26T08:17:33;5.05;;;1.50;;
25780;SDS011;13626;48.128;11.628;2022-10-26T08:20:00;5.93;;;1.40;;
25780;SDS011;13626;48.128;11.628;2022-10-26T08:22:28;2.60;;;1.38;;
25780;SDS011;13626;48.128;11.628;2022-10-26T08:24:56;1.95;;;1.38;;
25780;SDS011;13626;48.128;11.628;2022-10-26T08:27:23;3.50;;;1.40;;
25780;SDS011;13626;48.128;11.628;2022-10-26T08:29:50;2.75;;;1.30;;
25780;SDS011;13626;48.128;11.628;2022-10-26T08:32:17;4.60;;;1.45;;
25780;SDS011;13626;48.128;11.628;2022-10-26T08:34:44;1.50;;;1.13;;
25780;SDS011;13626;48.128;11.628;2022-10-26T08:37:11;3.20;;;1.52;;
25780;SDS011;13626;48.128;11.628;2022-10-26T08:39:38;1.40;;;1.10;;
25780;SDS011;13626;48.128;11.628;2022-10-26T08:42:12;2.28;;;1.25;;
25780;SDS011;13626;48.128;11.628;2022-10-26T08:44:45;3.47;;;0.98;;
25780;SDS011;13626;48.128;11.628;2022-10-26T08:49:43;1.52;;;1.00;;
25780;SDS011;13626;48.128;11.628;2022-10-26T08:52:13;3.58;;;1.02;;
25780;SDS011;13626;48.128;11.628;2022-10-26T08:54:51;3.92;;;1.20;;
25780;SDS011;13626;48.128;11.628;2022-10-26T09:00:00;2.35;;;1.02;;
25780;SDS011;13626;48.128;11.628;2022-10-26T09:02:28;2.13;;;0.98;;
25780;SDS011;13626;48.128;11.628;2022-10-26T09:04:56;5.05;;;0.98;;
25780;SDS011;13626;48.128;11.628;2022-10-26T09:07:30;3.80;;;1.20;;
25780;SDS011;13626;48.128;11.628;2022-10-26T09:10:18;2.55;;;1.00;;
25780;SDS011;13626;48.128;11.628;2022-10-26T09:15:25;2.28;;;1.08;;
25780;SDS011;13626;48.128;11.628;2022-10-26T09:25:52;2.85;;;1.27;;
25780;SDS011;13626;48.128;11.628;2022-10-26T09:28:21;6.30;;;0.95;;
25780;SDS011;13626;48.128;11.628;2022-10-26T09:30:48;2.17;;;1.13;;
25780;SDS011;13626;48.128;11.628;2022-10-26T09:33:17;2.53;;;0.85;;
25780;SDS011;13626;48.128;11.628;2022-10-26T09:35:47;3.20;;;0.90;;
25780;SDS011;13626;48.128;11.628;2022-10-26T09:38:21;2.75;;;1.23;;
25780;SDS011;13626;48.128;11.628;2022-10-26T09:44:09;3.08;;;1.10;;
25780;SDS011;13626;48.128;11.628;2022-10-26T09:46:09;2.53;;;1.35;;
25780;SDS011;13626;48.128;11.628;2022-10-26T09:48:49;1.60;;;0.80;;
25780;SDS011;13626;48.128;11.628;2022-10-26T09:51:18;2.55;;;1.08;;
25780;SDS011;13626;48.128;11.628;2022-10-26T09:53:46;4.45;;;1.10;;
25780;SDS011;13626;48.128;11.628;2022-10-26T09:56:14;3.92;;;1.50;;
25780;SDS011;13626;48.128;11.628;2022-10-26T09:58:43;1.75;;;1.05;;
25780;SDS011;13626;48.128;11.628;2022-10-26T10:01:27;3.20;;;1.20;;
25780;SDS011;13626;48.128;11.628;2022-10-26T10:06:43;3.50;;;1.00;;
25780;SDS011;13626;48.128;11.628;2022-10-26T10:09:12;3.83;;;1.40;;
25780;SDS011;13626;48.128;11.628;2022-10-26T10:11:43;4.10;;;1.48;;
25780;SDS011;13626;48.128;11.628;2022-10-26T10:14:15;2.80;;;1.65;;
25780;SDS011;13626;48.128;11.628;2022-10-26T10:16:48;4.67;;;1.93;;
25780;SDS011;13626;48.128;11.628;2022-10-26T10:19:20;4.43;;;1.30;;
25780;SDS011;13626;48.128;11.628;2022-10-26T10:21:48;3.85;;;1.20;;
25780;SDS011;13626;48.128;11.628;2022-10-26T10:24:34;5.43;;;1.00;;
25780;SDS011;13626;48.128;11.628;2022-10-26T10:29:30;3.50;;;1.00;;
25780;SDS011;13626;48.128;11.628;2022-10-26T10:31:58;2.80;;;1.00;;
25780;SDS011;13626;48.128;11.628;2022-10-26T10:34:26;1.90;;;0.98;;
25780;SDS011;13626;48.128;11.628;2022-10-26T10:36:53;3.03;;;1.08;;
25780;SDS011;13626;48.128;11.628;2022-10-26T10:39:34;2.30;;;1.00;;
25780;SDS011;13626;48.128;11.628;2022-10-26T10:42:02;5.60;;;1.30;;
25780;SDS011;13626;48.128;11.628;2022-10-26T10:44:31;1.92;;;1.10;;
25780;SDS011;13626;48.128;11.628;2022-10-26T10:47:03;3.08;;;0.88;;
25780;SDS011;13626;48.128;11.628;2022-10-26T10:49:30;1.48;;;0.85;;
25780;SDS011;13626;48.128;11.628;2022-10-26T10:51:58;4.78;;;1.35;;
25780;SDS011;13626;48.128;11.628;2022-10-26T10:54:32;3.50;;;1.40;;
25780;SDS011;13626;48.128;11.628;2022-10-26T11:07:46;4.78;;;1.88;;
25780;SDS011;13626;48.128;11.628;2022-10-26T11:10:16;6.38;;;1.77;;
25780;SDS011;13626;48.128;11.628;2022-10-26T11:12:48;4.95;;;1.63;;
25780;SDS011;13626;48.128;11.628;2022-10-26T11:15:19;3.00;;;1.23;;
25780;SDS011;13626;48.128;11.628;2022-10-26T11:20:46;5.25;;;1.95;;
25780;SDS011;13626;48.128;11.628;2022-10-26T11:23:20;3.33;;;1.55;;
25780;SDS011;13626;48.128;11.628;2022-10-26T11:25:54;3.33;;;1.50;;
25780;SDS011;13626;48.128;11.628;2022-10-26T11:30:56;5.38;;;1.95;;
25780;SDS011;13626;48.128;11.628;2022-10-26T11:33:26;5.22;;;1.75;;
25780;SDS011;13626;48.128;11.628;2022-10-26T11:35:56;8.68;;;2.55;;
25780;SDS011;13626;48.128;11.628;2022-10-26T11:41:17;8.35;;;1.70;;
25780;SDS011;13626;48.128;11.628;2022-10-26T11:43:48;6.28;;;1.77;;
25780;SDS011;13626;48.128;11.628;2022-10-26T11:51:19;4.20;;;1.63;;
25780;SDS011;13626;48.128;11.628;2022-10-26T11:53:48;6.00;;;1.40;;
25780;SDS011;13626;48.128;11.628;2022-10-26T11:56:28;5.53;;;1.67;;
25780;SDS011;13626;48.128;11.628;2022-10-26T11:58:56;3.90;;;1.40;;
25780;SDS011;13626;48.128;11.628;2022-10-26T12:01:24;3.55;;;1.58;;
25780;SDS011;13626;48.128;11.628;2022-10-26T12:03:54;4.55;;;1.88;;
25780;SDS011;13626;48.128;11.628;2022-10-26T12:06:27;6.07;;;2.05;;
25780;SDS011;13626;48.128;11.628;2022-10-26T12:17:03;5.85;;;1.73;;
25780;SDS011;13626;48.128;11.628;2022-10-26T12:19:41;5.68;;;2.25;;
25780;SDS011;13626;48.128;11.628;2022-10-26T12:22:12;5.78;;;2.10;;
25780;SDS011;13626;48.128;11.628;2022-10-26T12:24:43;5.68;;;2.15;;
25780;SDS011;13626;48.128;11.628;2022-10-26T12:27:32;7.07;;;2.30;;
25780;SDS011;13626;48.128;11.628;2022-10-26T12:38:26;6.13;;;2.50;;
25780;SDS011;13626;48.128;11.628;2022-10-26T12:43:39;7.80;;;2.30;;
25780;SDS011;13626;48.128;11.628;2022-10-26T12:48:41;5.53;;;1.95;;
25780;SDS011;13626;48.128;11.628;2022-10-26T13:01:41;5.07;;;1.90;;
25780;SDS011;13626;48.128;11.628;2022-10-26T13:09:21;8.18;;;2.60;;
25780;SDS011;13626;48.128;11.628;2022-10-26T13:11:51;5.63;;;2.03;;
25780;SDS011;13626;48.128;11.628;2022-10-26T13:14:20;11.13;;;2.22;;
25780;SDS011;13626;48.128;11.628;2022-10-26T13:16:48;7.97;;;2.08;;
25780;SDS011;13626;48.128;11.628;2022-10-26T13:19:49;8.10;;;2.03;;
25780;SDS011;13626;48.128;11.628;2022-10-26T13:22:13;6.57;;;2.22;;
25780;SDS011;13626;48.128;11.628;2022-10-26T13:24:46;8.70;;;2.50;;
25780;SDS011;13626;48.128;11.628;2022-10-26T13:32:28;7.05;;;2.05;;
25780;SDS011;13626;48.128;11.628;2022-10-26T13:34:55;10.38;;;2.78;;
25780;SDS011;13626;48.128;11.628;2022-10-26T13:37:23;7.93;;;2.47;;
25780;SDS011;13626;48.128;11.628;2022-10-26T13:39:52;5.60;;;2.30;;
25780;SDS011;13626;48.128;11.628;2022-10-26T13:42:30;10.27;;;2.15;;
25780;SDS011;13626;48.128;11.628;2022-10-26T13:45:02;6.57;;;2.25;;
25780;SDS011;13626;48.128;11.628;2022-10-26T13:50:13;10.35;;;2.28;;
25780;SDS011;13626;48.128;11.628;2022-10-26T13:52:42;7.80;;;2.30;;
25780;SDS011;13626;48.128;11.628;2022-10-26T13:55:14;4.70;;;2.22;;
25780;SDS011;13626;48.128;11.628;2022-10-26T13:57:48;10.27;;;2.13;;
25780;SDS011;13626;48.128;11.628;2022-10-26T14:00:21;9.95;;;2.50;;
25780;SDS011;13626;48.128;11.628;2022-10-26T14:02:49;6.28;;;2.20;;
25780;SDS011;13626;48.128;11.628;2022-10-26T14:05:17;7.20;;;1.98;;
25780;SDS011;13626;48.128;11.628;2022-10-26T14:10:27;4.95;;;1.90;;
25780;SDS011;13626;48.128;11.628;2022-10-26T14:12:55;9.32;;;2.42;;
25780;SDS011;13626;48.128;11.628;2022-10-26T14:15:29;9.85;;;2.60;;
25780;SDS011;13626;48.128;11.628;2022-10-26T14:17:58;6.88;;;2.00;;
25780;SDS011;13626;48.128;11.628;2022-10-26T14:20:26;7.32;;;2.20;;
25780;SDS011;13626;48.128;11.628;2022-10-26T14:22:54;6.20;;;2.25;;
25780;SDS011;13626;48.128;11.628;2022-10-26T14:25:25;5.18;;;1.98;;
25780;SDS011;13626;48.128;11.628;2022-10-26T14:28:23;6.75;;;2.28;;
25780;SDS011;13626;48.128;11.628;2022-10-26T14:30:50;4.43;;;2.20;;
25780;SDS011;13626;48.128;11.628;2022-10-26T14:33:19;9.00;;;2.10;;
25780;SDS011;13626;48.128;11.628;2022-10-26T14:35:46;8.63;;;2.30;;
25780;SDS011;13626;48.128;11.628;2022-10-26T14:38:18;6.90;;;2.17;;
25780;SDS011;13626;48.128;11.628;2022-10-26T14:40:47;8.02;;;1.90;;
25780;SDS011;13626;48.128;11.628;2022-10-26T14:43:17;5.78;;;2.05;;
25780;SDS011;13626;48.128;11.628;2022-10-26T14:45:47;6.78;;;2.30;;
25780;SDS011;13626;48.128;11.628;2022-10-26T14:48:19;6.78;;;1.90;;
25780;SDS011;13626;48.128;11.628;2022-10-26T14:51:04;4.07;;;2.10;;
25780;SDS011;13626;48.128;11.628;2022-10-26T14:53:37;7.25;;;2.08;;
25780;SDS011;13626;48.128;11.628;2022-10-26T14:56:15;6.00;;;2.10;;
25780;SDS011;13626;48.128;11.628;2022-10-26T14:58:43;5.25;;;2.35;;
25780;SDS011;13626;48.128;11.628;2022-10-26T15:01:14;9.27;;;2.20;;
25780;SDS011;13626;48.128;11.628;2022-10-26T15:03:43;10.38;;;2.70;;
25780;SDS011;13626;48.128;11.628;2022-10-26T15:08:53;8.43;;;2.08;;
25780;SDS011;13626;48.128;11.628;2022-10-26T15:11:22;5.65;;;1.90;;
25780;SDS011;13626;48.128;11.628;2022-10-26T15:13:50;4.55;;;1.98;;
25780;SDS011;13626;48.128;11.628;2022-10-26T15:18:44;9.77;;;2.40;;
25780;SDS011;13626;48.128;11.628;2022-10-26T15:21:46;7.05;;;2.08;;
25780;SDS011;13626;48.128;11.628;2022-10-26T15:24:39;6.60;;;2.30;;
25780;SDS011;13626;48.128;11.628;2022-10-26T15:27:10;5.65;;;2.58;;
25780;SDS011;13626;48.128;11.628;2022-10-26T15:32:17;10.18;;;2.88;;
25780;SDS011;13626;48.128;11.628;2022-10-26T15:34:48;6.20;;;1.77;;
25780;SDS011;13626;48.128;11.628;2022-10-26T15:37:16;6.88;;;2.00;;
25780;SDS011;13626;48.128;11.628;2022-10-26T15:39:43;5.63;;;2.60;;
25780;SDS011;13626;48.128;11.628;2022-10-26T15:42:13;4.25;;;2.20;;
25780;SDS011;13626;48.128;11.628;2022-10-26T15:44:40;6.25;;;2.38;;
25780;SDS011;13626;48.128;11.628;2022-10-26T15:47:08;10.95;;;2.90;;
25780;SDS011;13626;48.128;11.628;2022-10-26T15:49:39;7.45;;;2.35;;
25780;SDS011;13626;48.128;11.628;2022-10-26T15:52:07;7.15;;;2.35;;
25780;SDS011;13626;48.128;11.628;2022-10-26T15:54:34;9.82;;;3.45;;
25780;SDS011;13626;48.128;11.628;2022-10-26T15:57:02;6.63;;;3.13;;
25780;SDS011;13626;48.128;11.628;2022-10-26T15:59:29;11.23;;;3.25;;
25780;SDS011;13626;48.128;11.628;2022-10-26T16:01:56;7.07;;;3.10;;
25780;SDS011;13626;48.128;11.628;2022-10-26T16:04:23;8.40;;;3.00;;
25780;SDS011;13626;48.128;11.628;2022-10-26T16:06:51;5.85;;;2.58;;
25780;SDS011;13626;48.128;11.628;2022-10-26T16:09:18;4.68;;;2.95;;
25780;SDS011;13626;48.128;11.628;2022-10-26T16:11:45;10.15;;;2.70;;
25780;SDS011;13626;48.128;11.628;2022-10-26T16:14:12;6.28;;;2.38;;
25780;SDS011;13626;48.128;11.628;2022-10-26T16:16:40;7.90;;;2.88;;
25780;SDS011;13626;48.128;11.628;2022-10-26T16:19:08;4.43;;;2.33;;
25780;SDS011;13626;48.128;11.628;2022-10-26T16:21:55;8.65;;;3.00;;
25780;SDS011;13626;48.128;11.628;2022-10-26T16:24:23;11.93;;;3.08;;
25780;SDS011;13626;48.128;11.628;2022-10-26T16:26:50;8.20;;;2.97;;
25780;SDS011;13626;48.128;11.628;2022-10-26T16:29:17;8.60;;;2.58;;
25780;SDS011;13626;48.128;11.628;2022-10-26T16:31:45;8.15;;;2.42;;
25780;SDS011;13626;48.128;11.628;2022-10-26T16:34:13;4.88;;;2.13;;
25780;SDS011;13626;48.128;11.628;2022-10-26T16:36:40;4.97;;;2.20;;
25780;SDS011;13626;48.128;11.628;2022-10-26T16:39:08;4.53;;;2.22;;
25780;SDS011;13626;48.128;11.628;2022-10-26T16:41:36;4.65;;;2.78;;
25780;SDS011;13626;48.128;11.628;2022-10-26T16:44:03;7.60;;;2.55;;
25780;SDS011;13626;48.128;11.628;2022-10-26T16:46:30;8.40;;;2.92;;
25780;SDS011;13626;48.128;11.628;2022-10-26T16:48:57;9.07;;;2.85;;
25780;SDS011;13626;48.128;11.628;2022-10-26T16:51:26;6.22;;;3.00;;
25780;SDS011;13626;48.128;11.628;2022-10-26T16:53:54;7.43;;;3.28;;
25780;SDS011;13626;48.128;11.628;2022-10-26T16:56:23;8.43;;;3.28;;
25780;SDS011;13626;48.128;11.628;2022-10-26T16:58:51;7.88;;;3.28;;
25780;SDS011;13626;48.128;11.628;2022-10-26T17:01:18;8.10;;;2.90;;
25780;SDS011;13626;48.128;11.628;2022-10-26T17:03:46;8.73;;;3.40;;
25780;SDS011;13626;48.128;11.628;2022-10-26T17:06:14;5.72;;;3.08;;
25780;SDS011;13626;48.128;11.628;2022-10-26T17:08:42;9.48;;;3.60;;